createdAt,value
2023-01-21T03:09:29.277Z,87410.16
2023-01-21T03:14:56.519Z,87668.47
2023-01-21T03:20:08.799Z,87668.47
2023-01-21T03:25:14.855Z,87410.16
2023-01-21T03:30:21.421Z,87151.91
2023-01-21T03:35:27.842Z,87410.16
2023-01-21T03:40:36.954Z,87410.16
2023-01-21T03:45:47.609Z,87151.91
2023-01-21T03:50:57.215Z,87151.91
2023-01-21T03:56:02.128Z,87151.91
2023-01-21T04:01:05.706Z,86893.66
2023-01-21T04:06:11.535Z,87410.16
2023-01-21T04:17:06.980Z,86893.66
2023-01-21T04:22:10.541Z,86635.41
2023-01-21T04:27:14.127Z,86893.66
2023-01-21T04:32:21.660Z,86635.41
2023-01-21T04:37:25.215Z,86377.19
2023-01-21T04:42:28.915Z,86377.19
2023-01-21T04:47:33.830Z,86635.41
2023-01-21T04:52:37.546Z,86377.19
2023-01-21T04:57:41.137Z,86377.19
2023-01-21T05:02:46.190Z,85860.81
2023-01-21T05:07:53.863Z,86119.00
2023-01-21T05:12:57.386Z,86119.00
2023-01-21T05:18:02.489Z,85860.81
2023-01-21T05:23:06.030Z,85860.81
2023-01-21T05:28:09.615Z,85860.81
2023-01-21T05:33:14.871Z,85860.81
2023-01-21T05:38:18.376Z,85602.66
2023-01-21T05:43:21.922Z,85860.81
2023-01-21T05:48:29.185Z,85602.66
2023-01-21T05:53:32.709Z,85602.66
2023-01-21T05:58:36.763Z,85860.81
2023-01-21T06:03:41.758Z,85602.66
2023-01-21T06:08:45.389Z,85602.66
2023-01-21T06:13:48.905Z,85344.50
2023-01-21T06:18:53.920Z,85602.66
2023-01-21T06:23:57.518Z,85602.66
2023-01-21T06:29:01.551Z,85344.50
2023-01-21T06:34:06.468Z,85602.66
2023-01-21T06:39:10.955Z,85860.81
2023-01-21T06:44:14.599Z,85602.66
2023-01-21T06:49:19.515Z,85860.81
2023-01-21T06:54:23.053Z,85860.81
2023-01-21T06:59:26.666Z,86377.19
2023-01-21T07:04:31.711Z,86377.19
2023-01-21T07:09:35.471Z,86377.19
2023-01-21T07:14:39.039Z,86635.41
2023-01-21T07:19:44.129Z,86893.66
2023-01-21T07:24:47.692Z,86893.66
2023-01-21T07:29:51.261Z,86893.66
2023-01-21T07:34:56.299Z,86893.66
2023-01-21T07:39:59.875Z,86893.66
2023-01-21T07:45:04.029Z,87151.91
2023-01-21T07:50:10.521Z,87151.91
2023-01-21T07:55:14.111Z,87926.75
2023-01-21T08:00:18.864Z,87668.47
2023-01-21T08:05:25.255Z,87926.75
2023-01-21T08:10:28.853Z,87668.47
2023-01-21T08:15:32.426Z,87926.75
2023-01-21T08:20:37.572Z,88185.06
2023-01-21T08:25:42.722Z,88185.06
